createdAt,value
2022-11-15T00:02:14.946Z,75.78
2022-11-15T00:05:36.404Z,75.87
2022-11-15T00:09:01.296Z,75.88
2022-11-15T00:12:21.606Z,75.89
2022-11-15T00:15:42.072Z,75.77
2022-11-15T00:19:02.835Z,75.64
2022-11-15T00:22:23.062Z,75.86
2022-11-15T00:25:43.156Z,75.80
2022-11-15T00:29:03.455Z,75.92
2022-11-15T00:32:23.822Z,75.58
2022-11-15T00:35:43.877Z,75.60
2022-11-15T00:39:06.080Z,75.36
2022-11-15T00:42:26.540Z,75.58
2022-11-15T00:45:46.643Z,75.36
2022-11-15T00:49:06.608Z,75.44
2022-11-15T00:52:27.156Z,75.42
2022-11-15T00:55:47.385Z,75.28
2022-11-15T00:59:07.963Z,75.32
2022-11-15T01:02:28.561Z,75.31
2022-11-15T01:05:48.873Z,75.22
2022-11-15T01:09:09.168Z,75.34
2022-11-15T01:12:29.653Z,75.06
2022-11-15T01:15:50.219Z,75.12
2022-11-15T01:19:10.420Z,75.08
2022-11-15T01:22:31.081Z,75.18
2022-11-15T01:25:51.855Z,75.13
2022-11-15T01:29:11.872Z,75.11
2022-11-15T01:32:32.340Z,75.22
2022-11-15T01:35:52.586Z,75.14
2022-11-15T01:39:12.649Z,74.92
2022-11-15T01:42:33.079Z,75.27
2022-11-15T01:46:02.934Z,75.30
2022-11-15T01:49:25.052Z,75.26
2022-11-15T01:52:45.560Z,75.27
2022-11-15T01:56:10.059Z,74.83
2022-11-15T01:59:30.739Z,75.04
2022-11-15T02:02:51.247Z,74.94
2022-11-15T02:06:11.853Z,74.82
2022-11-15T02:09:31.932Z,74.86
2022-11-15T02:12:53.821Z,74.85
2022-11-15T02:16:28.185Z,74.59
2022-11-15T02:20:17.452Z,74.51
2022-11-15T02:23:49.814Z,74.40
2022-11-15T02:28:03.052Z,74.53
2022-11-15T02:31:26.151Z,74.28
2022-11-15T02:35:03.370Z,74.34
2022-11-15T02:38:45.168Z,74.34
2022-11-15T02:42:33.879Z,74.06
2022-11-15T02:46:02.776Z,74.25
2022-11-15T02:49:26.546Z,73.99
2022-11-15T02:52:49.675Z,73.73
2022-11-15T02:56:11.556Z,73.74
2022-11-15T02:59:34.279Z,74.07
2022-11-15T03:03:12.364Z,73.78
2022-11-15T03:06:39.420Z,73.84
2022-11-15T03:10:27.584Z,73.95
2022-11-15T03:13:47.696Z,74.12
2022-11-15T03:17:30.898Z,73.99
2022-11-15T03:20:51.478Z,73.92
2022-11-15T03:24:14.659Z,73.90
2022-11-15T03:27:45.375Z,73.86
2022-11-15T03:31:26.392Z,73.92
2022-11-15T03:34:52.450Z,73.66
2022-11-15T03:38:30.899Z,73.45
2022-11-15T03:42:33.069Z,73.88
2022-11-15T03:45:59.923Z,73.73
2022-11-15T03:49:34.554Z,73.85
2022-11-15T03:52:56.463Z,73.74
2022-11-15T03:56:16.935Z,73.57
2022-11-15T03:59:36.991Z,73.66
2022-11-15T04:02:57.476Z,73.85
2022-11-15T04:06:17.570Z,73.92
2022-11-15T04:09:58.202Z,73.74
2022-11-15T04:13:18.698Z,74.00
2022-11-15T04:16:43.752Z,73.70
2022-11-15T04:20:24.526Z,73.92
2022-11-15T04:24:03.626Z,73.86
2022-11-15T04:27:24.201Z,73.72
2022-11-15T04:30:44.939Z,73.69
2022-11-15T04:34:05.322Z,73.58
2022-11-15T04:37:25.569Z,73.58
2022-11-15T04:40:47.048Z,73.44
2022-11-15T04:44:07.545Z,73.54
2022-11-15T04:47:28.518Z,73.73
2022-11-15T04:50:49.440Z,73.47
2022-11-15T04:54:09.848Z,73.41
2022-11-15T04:57:30.272Z,73.50
2022-11-15T05:00:50.737Z,73.46
2022-11-15T05:04:20.564Z,73.57
2022-11-15T05:07:40.706Z,73.46
2022-11-15T05:11:01.319Z,73.56
2022-11-15T05:14:21.771Z,73.50
2022-11-15T05:17:42.338Z,73.67
2022-11-15T05:21:06.682Z,73.56
2022-11-15T05:24:26.982Z,73.64
2022-11-15T05:27:47.191Z,73.42
2022-11-15T05:31:09.935Z,73.67
2022-11-15T05:34:30.014Z,73.47
2022-11-15T05:37:50.362Z,73.41
2022-11-15T05:41:12.136Z,73.61
2022-11-15T05:44:33.518Z,73.38
2022-11-15T05:47:55.588Z,73.27
2022-11-15T05:51:17.650Z,73.16
2022-11-15T05:54:38.623Z,73.02
2022-11-15T05:57:59.014Z,72.92
2022-11-15T06:01:19.519Z,73.00
2022-11-15T06:04:39.934Z,72.88
2022-11-15T06:08:00.858Z,72.84
2022-11-15T06:11:21.339Z,72.80
2022-11-15T06:14:41.762Z,72.78
2022-11-15T06:18:01.881Z,72.77
2022-11-15T06:21:22.768Z,72.52
2022-11-15T06:24:44.313Z,72.49
2022-11-15T06:28:04.506Z,72.36
2022-11-15T06:31:24.807Z,72.56
2022-11-15T06:34:45.096Z,72.54
2022-11-15T06:38:08.637Z,72.50
2022-11-15T06:41:29.243Z,72.48
2022-11-15T06:44:49.503Z,72.61
2022-11-15T06:48:09.703Z,72.74
2022-11-15T06:51:29.625Z,73.09
2022-11-15T06:54:50.106Z,72.62
2022-11-15T06:58:10.365Z,72.82
2022-11-15T07:01:31.391Z,72.66
2022-11-15T07:04:51.750Z,72.91
2022-11-15T07:08:11.931Z,72.83
2022-11-15T07:11:33.772Z,72.99
2022-11-15T07:14:53.907Z,73.05
2022-11-15T07:18:14.018Z,73.12
2022-11-15T07:21:34.135Z,73.18
2022-11-15T07:24:54.377Z,73.33
2022-11-15T07:28:14.736Z,73.31
2022-11-15T07:31:35.261Z,73.48
2022-11-15T07:34:55.224Z,73.77
2022-11-15T07:38:19.853Z,73.53
2022-11-15T07:41:40.199Z,73.74
2022-11-15T07:45:00.321Z,73.68
2022-11-15T07:48:20.553Z,73.99
2022-11-15T07:51:40.843Z,73.98
2022-11-15T07:55:01.446Z,74.21
2022-11-15T07:58:22.127Z,74.51
2022-11-15T08:01:42.759Z,74.54
2022-11-15T08:05:03.510Z,74.65
2022-11-15T08:08:23.827Z,74.93
2022-11-15T08:11:44.433Z,74.91
2022-11-15T08:15:05.503Z,75.22
2022-11-15T08:18:25.881Z,75.27
2022-11-15T08:21:46.570Z,75.22
2022-11-15T08:25:07.855Z,75.38
2022-11-15T08:28:29.357Z,75.49
2022-11-15T08:31:49.596Z,75.66
2022-11-15T08:35:13.159Z,75.72
2022-11-15T08:38:33.932Z,75.89
2022-11-15T08:41:54.337Z,75.92
2022-11-15T08:45:15.612Z,76.05
2022-11-15T08:48:35.888Z,76.01
2022-11-15T08:51:56.623Z,76.05
2022-11-15T08:55:17.715Z,76.17
2022-11-15T08:58:38.273Z,76.04
2022-11-15T09:01:58.339Z,76.12
2022-11-15T09:05:19.181Z,76.07
2022-11-15T09:08:48.101Z,76.12
2022-11-15T09:12:09.327Z,76.07
2022-11-15T09:15:30.921Z,76.10
2022-11-15T09:18:51.615Z,76.07
2022-11-15T09:22:11.973Z,75.94
2022-11-15T09:25:33.349Z,75.86
2022-11-15T09:28:53.732Z,75.74
2022-11-15T09:32:14.156Z,75.55
2022-11-15T09:35:34.105Z,75.41
2022-11-15T09:38:55.087Z,75.25
2022-11-15T09:42:32.790Z,75.02
2022-11-15T09:46:11.019Z,74.80
2022-11-15T09:49:42.292Z,74.77
2022-11-15T09:52:51.464Z,74.71
2022-11-15T09:56:11.856Z,74.59
2022-11-15T09:59:32.132Z,74.47
2022-11-15T10:03:03.332Z,74.42
2022-11-15T10:06:06.862Z,74.16
2022-11-15T10:09:21.182Z,74.06
2022-11-15T10:12:25.960Z,74.11
2022-11-15T10:15:27.926Z,73.80
2022-11-15T10:18:44.734Z,73.75
2022-11-15T10:22:05.339Z,73.67
2022-11-15T10:25:10.029Z,73.45
2022-11-15T10:28:23.946Z,73.35
2022-11-15T10:31:28.680Z,73.43
2022-11-15T10:34:36.234Z,73.15
2022-11-15T10:37:38.075Z,73.26
2022-11-15T10:40:41.080Z,73.09
2022-11-15T10:43:43.588Z,73.19
2022-11-15T10:46:57.077Z,72.98
2022-11-15T10:50:31.967Z,72.78
2022-11-15T10:53:44.229Z,72.57
2022-11-15T10:56:51.359Z,72.44
2022-11-15T11:00:00.494Z,72.46
2022-11-15T11:03:09.010Z,72.38
2022-11-15T11:06:15.425Z,72.24
2022-11-15T11:09:35.879Z,72.08
2022-11-15T11:12:37.800Z,71.79
2022-11-15T11:15:41.523Z,71.68
2022-11-15T11:18:55.208Z,71.46
2022-11-15T11:22:11.874Z,71.26
2022-11-15T11:25:32.226Z,71.07
2022-11-15T11:28:42.461Z,70.84
2022-11-15T11:32:07.090Z,70.84
2022-11-15T11:35:20.194Z,70.66
2022-11-15T11:38:27.993Z,70.26
2022-11-15T11:41:41.679Z,70.18
2022-11-15T11:45:16.469Z,70.06
2022-11-15T11:48:43.844Z,69.99
2022-11-15T11:52:00.719Z,69.89
2022-11-15T11:55:14.857Z,69.83
2022-11-15T11:58:39.330Z,69.90
2022-11-15T12:01:45.539Z,69.86
2022-11-15T12:04:53.445Z,69.79
2022-11-15T12:08:04.097Z,69.84
2022-11-15T12:11:14.964Z,70.07
2022-11-15T12:14:26.990Z,69.90
2022-11-15T12:17:32.449Z,69.97
2022-11-15T12:20:39.952Z,70.03
2022-11-15T12:23:50.566Z,69.99
2022-11-15T12:27:03.313Z,70.04
2022-11-15T12:30:14.521Z,70.16
2022-11-15T12:33:37.335Z,70.09
2022-11-15T12:36:43.294Z,70.14
2022-11-15T12:40:04.461Z,70.31
2022-11-15T12:43:39.198Z,70.44
2022-11-15T12:46:41.026Z,70.35
2022-11-15T12:49:44.929Z,70.47
2022-11-15T12:53:27.879Z,70.60
2022-11-15T12:56:29.705Z,70.65
2022-11-15T13:00:04.409Z,70.82
2022-11-15T13:03:23.833Z,70.73
2022-11-15T13:06:46.244Z,70.91
2022-11-15T13:09:50.844Z,71.03
2022-11-15T13:12:56.164Z,71.12
2022-11-15T13:16:02.107Z,71.04
2022-11-15T13:19:05.105Z,71.24
2022-11-15T13:22:28.759Z,71.40
2022-11-15T13:25:45.703Z,71.43
2022-11-15T13:28:52.208Z,71.34
2022-11-15T13:31:55.952Z,71.42
2022-11-15T13:35:00.782Z,71.53
2022-11-15T13:38:05.161Z,71.45
2022-11-15T13:41:22.629Z,71.53
2022-11-15T13:44:28.206Z,71.62
2022-11-15T13:47:31.954Z,71.63
2022-11-15T13:50:37.470Z,71.79
2022-11-15T13:53:41.794Z,71.96
2022-11-15T13:56:58.381Z,72.03
2022-11-15T14:00:41.060Z,71.90
2022-11-15T14:03:50.445Z,72.15
2022-11-15T14:06:55.765Z,72.00
2022-11-15T14:09:57.695Z,72.41
2022-11-15T14:13:00.488Z,72.28
2022-11-15T14:16:19.703Z,72.51
2022-11-15T14:19:21.390Z,72.37
2022-11-15T14:22:28.607Z,72.45
2022-11-15T14:25:35.818Z,72.42
2022-11-15T14:28:39.598Z,72.64
2022-11-15T14:31:43.862Z,72.51
2022-11-15T14:34:46.471Z,72.72
2022-11-15T14:37:48.483Z,72.51
2022-11-15T14:40:50.803Z,72.63
2022-11-15T14:43:53.826Z,72.71
2022-11-15T14:46:55.505Z,72.58
2022-11-15T14:49:57.206Z,72.73
2022-11-15T14:52:59.013Z,72.83
2022-11-15T14:56:00.810Z,72.97
2022-11-15T14:59:02.573Z,72.88
2022-11-15T15:02:20.338Z,72.90
2022-11-15T15:05:31.020Z,72.61
2022-11-15T15:08:32.966Z,72.72
2022-11-15T15:11:34.763Z,72.56
2022-11-15T15:14:36.490Z,72.49
2022-11-15T15:17:38.176Z,72.47
2022-11-15T15:20:41.860Z,72.54
2022-11-15T15:23:43.575Z,72.74
2022-11-15T15:26:45.343Z,72.71
2022-11-15T15:29:47.080Z,72.58
2022-11-15T15:32:49.270Z,72.38
2022-11-15T15:35:50.931Z,72.32
2022-11-15T15:38:52.870Z,72.36
2022-11-15T15:41:57.412Z,72.33
2022-11-15T15:44:59.307Z,72.31
2022-11-15T15:48:01.025Z,72.37
2022-11-15T15:51:05.778Z,72.43
2022-11-15T15:54:12.979Z,72.38
2022-11-15T15:57:14.949Z,72.38
2022-11-15T16:00:17.596Z,72.26
2022-11-15T16:03:19.327Z,72.11
2022-11-15T16:06:44.599Z,71.94
2022-11-15T16:10:01.688Z,72.29
2022-11-15T16:13:03.668Z,72.32
2022-11-15T16:16:09.624Z,72.24
2022-11-15T16:19:12.457Z,72.09
2022-11-15T16:22:14.414Z,72.31
2022-11-15T16:25:16.126Z,72.45
2022-11-15T16:28:25.139Z,72.62
2022-11-15T16:31:26.845Z,72.61
2022-11-15T16:34:31.597Z,72.72
2022-11-15T16:37:34.660Z,72.72
2022-11-15T16:40:36.406Z,72.91
2022-11-15T16:43:38.048Z,73.09
2022-11-15T16:46:42.767Z,73.30
2022-11-15T16:49:48.169Z,73.41
2022-11-15T16:52:55.584Z,73.49
2022-11-15T16:55:57.780Z,73.56
2022-11-15T16:59:00.038Z,73.60
2022-11-15T17:02:02.042Z,73.79
2022-11-15T17:05:09.841Z,73.82
2022-11-15T17:08:13.074Z,73.99
2022-11-15T17:11:18.813Z,73.99
2022-11-15T17:14:20.797Z,74.14
2022-11-15T17:17:22.933Z,74.00
2022-11-15T17:20:25.487Z,74.00
2022-11-15T17:23:27.312Z,74.24
2022-11-15T17:26:34.031Z,74.20
2022-11-15T17:29:38.161Z,74.35
2022-11-15T17:32:43.592Z,74.18
2022-11-15T17:35:45.845Z,74.31
2022-11-15T17:38:55.248Z,74.37
2022-11-15T17:42:00.742Z,74.38
2022-11-15T17:45:06.723Z,74.23
2022-11-15T17:48:11.330Z,74.41
2022-11-15T17:51:16.398Z,74.47
2022-11-15T17:54:18.782Z,74.54
2022-11-15T17:57:20.416Z,74.45
2022-11-15T18:00:22.182Z,74.45
2022-11-15T18:03:23.846Z,74.47
2022-11-15T18:06:26.936Z,74.59
2022-11-15T18:09:28.962Z,74.43
2022-11-15T18:12:30.632Z,74.59
2022-11-15T18:15:32.345Z,74.36
2022-11-15T18:18:35.292Z,74.44
2022-11-15T18:21:55.371Z,74.46
2022-11-15T18:24:57.040Z,74.57
2022-11-15T18:27:59.068Z,74.55
2022-11-15T18:31:02.498Z,74.53
2022-11-15T18:34:04.329Z,74.57
2022-11-15T18:37:06.444Z,74.59
2022-11-15T18:40:09.061Z,74.70
2022-11-15T18:43:10.721Z,74.74
2022-11-15T18:46:15.926Z,74.61
2022-11-15T18:49:19.639Z,74.66
2022-11-15T18:52:21.941Z,74.73
2022-11-15T18:55:23.517Z,74.78
2022-11-15T18:58:25.182Z,74.79
2022-11-15T19:01:30.472Z,74.78
2022-11-15T19:04:32.317Z,74.82
2022-11-15T19:07:34.292Z,74.84
2022-11-15T19:10:36.217Z,74.96
2022-11-15T19:13:38.694Z,74.86
2022-11-15T19:16:51.456Z,74.91
2022-11-15T19:19:53.157Z,74.87
2022-11-15T19:22:55.119Z,74.92
2022-11-15T19:25:59.429Z,74.94
2022-11-15T19:29:01.581Z,74.87
2022-11-15T19:32:04.577Z,75.08
2022-11-15T19:35:06.518Z,75.13
2022-11-15T19:38:08.353Z,75.15
2022-11-15T19:41:13.515Z,75.16
2022-11-15T19:44:15.359Z,75.16
2022-11-15T19:47:16.944Z,75.26
2022-11-15T19:50:18.737Z,75.31
2022-11-15T19:53:22.830Z,75.37
2022-11-15T19:56:24.892Z,75.35
2022-11-15T19:59:26.617Z,75.49
2022-11-15T20:02:28.301Z,75.51
2022-11-15T20:05:29.982Z,75.50
2022-11-15T20:08:32.695Z,75.58
2022-11-15T20:11:37.308Z,75.40
2022-11-15T20:14:39.082Z,75.65
2022-11-15T20:17:40.724Z,75.70
2022-11-15T20:20:42.655Z,75.56
2022-11-15T20:23:44.308Z,75.71
2022-11-15T20:26:46.400Z,75.60
2022-11-15T20:29:48.257Z,75.72
2022-11-15T20:32:49.949Z,75.68
2022-11-15T20:35:52.416Z,75.58
2022-11-15T20:38:58.588Z,75.67
2022-11-15T20:42:00.313Z,75.63
2022-11-15T20:45:01.908Z,75.69
2022-11-15T20:48:03.874Z,75.65
2022-11-15T20:51:13.701Z,75.71
2022-11-15T20:54:18.652Z,75.71
2022-11-15T20:57:20.333Z,75.74
2022-11-15T21:00:24.388Z,75.81
2022-11-15T21:03:26.009Z,75.74
2022-11-15T21:06:27.732Z,75.71
2022-11-15T21:09:47.706Z,75.65
2022-11-15T21:12:50.399Z,75.83
2022-11-15T21:15:55.463Z,75.70
2022-11-15T21:18:57.259Z,75.69
2022-11-15T21:21:58.947Z,75.68
2022-11-15T21:25:00.825Z,75.67
2022-11-15T21:28:02.658Z,75.71
2022-11-15T21:31:04.425Z,75.74
2022-11-15T21:34:06.674Z,75.71
2022-11-15T21:37:09.944Z,75.54
2022-11-15T21:40:12.013Z,75.64
2022-11-15T21:43:14.299Z,75.76
2022-11-15T21:46:15.913Z,75.58
2022-11-15T21:49:17.649Z,75.62
2022-11-15T21:52:19.251Z,75.73
2022-11-15T21:55:20.875Z,75.45
2022-11-15T21:58:23.198Z,75.62
2022-11-15T22:01:45.512Z,75.57
2022-11-15T22:04:47.228Z,75.41
2022-11-15T22:07:51.839Z,75.44
2022-11-15T22:10:53.770Z,75.24
2022-11-15T22:13:57.696Z,75.38
2022-11-15T22:17:00.713Z,75.21
2022-11-15T22:20:17.004Z,75.28
2022-11-15T22:23:26.043Z,75.12
2022-11-15T22:26:29.009Z,75.09
2022-11-15T22:29:30.809Z,75.11
2022-11-15T22:32:34.829Z,75.03
2022-11-15T22:35:40.880Z,74.96
2022-11-15T22:38:42.782Z,74.94
2022-11-15T22:41:44.694Z,74.92
2022-11-15T22:44:46.588Z,74.86
2022-11-15T22:47:48.267Z,74.64
2022-11-15T22:50:50.319Z,74.76
2022-11-15T22:53:52.062Z,74.80
2022-11-15T22:56:53.756Z,74.67
2022-11-15T22:59:55.768Z,74.60
2022-11-15T23:02:57.592Z,74.59
2022-11-15T23:06:06.802Z,74.56
2022-11-15T23:09:09.361Z,74.57
2022-11-15T23:12:30.046Z,74.52
2022-11-15T23:15:51.659Z,74.41
2022-11-15T23:18:56.977Z,74.53
2022-11-15T23:22:17.207Z,74.45
2022-11-15T23:25:18.951Z,74.48
2022-11-15T23:28:20.782Z,74.40
2022-11-15T23:31:41.296Z,74.40
2022-11-15T23:34:45.012Z,74.31
2022-11-15T23:37:46.688Z,74.45
2022-11-15T23:40:52.940Z,74.55
2022-11-15T23:43:54.636Z,74.45
2022-11-15T23:46:56.336Z,74.39
2022-11-15T23:49:58.026Z,74.48
2022-11-15T23:52:59.679Z,74.43
2022-11-15T23:56:12.652Z,74.47
2022-11-15T23:59:14.360Z,74.50
